createdAt,value
2019-03-12T00:02:34.960Z,99.90
2019-03-12T00:07:29.555Z,99.90
2019-03-12T00:12:24.123Z,99.90
2019-03-12T00:17:18.873Z,99.90
2019-03-12T00:22:13.470Z,99.90
2019-03-12T00:27:08.059Z,99.90
2019-03-12T00:32:02.702Z,99.90
2019-03-12T00:36:57.343Z,99.90
2019-03-12T00:41:51.933Z,99.90
2019-03-12T00:46:46.677Z,99.90
2019-03-12T00:51:41.271Z,99.90
2019-03-12T00:56:35.860Z,99.90
2019-03-12T01:01:30.447Z,99.90
2019-03-12T01:06:25.018Z,99.90
2019-03-12T01:11:19.672Z,99.90
2019-03-12T01:16:14.268Z,99.90
2019-03-12T01:21:08.929Z,99.90
2019-03-12T01:26:03.532Z,99.90
2019-03-12T01:30:58.087Z,99.90
2019-03-12T01:35:52.679Z,99.90
2019-03-12T01:40:47.252Z,99.90
2019-03-12T01:45:41.833Z,99.90
2019-03-12T01:50:36.437Z,99.90
2019-03-12T01:55:30.983Z,99.90
2019-03-12T02:00:25.583Z,99.90
2019-03-12T02:05:20.231Z,99.90
2019-03-12T02:10:15.716Z,99.90
2019-03-12T02:15:16.249Z,99.90
2019-03-12T02:20:17.338Z,99.90
2019-03-12T02:25:16.221Z,99.90
2019-03-12T02:30:17.950Z,99.90
2019-03-12T02:35:12.859Z,99.90
2019-03-12T02:40:13.519Z,99.90
2019-03-12T02:45:12.671Z,99.90
2019-03-12T02:50:12.119Z,99.90
2019-03-12T02:55:09.076Z,99.90
2019-03-12T03:00:06.221Z,99.90
2019-03-12T03:05:00.800Z,99.90
2019-03-12T03:09:55.453Z,99.90
2019-03-12T03:14:50.024Z,99.90
2019-03-12T03:19:44.634Z,99.90
2019-03-12T03:24:39.301Z,99.90
2019-03-12T03:29:33.879Z,99.90
2019-03-12T03:34:29.178Z,99.90
2019-03-12T03:39:23.829Z,99.90
2019-03-12T03:44:18.633Z,99.90
2019-03-12T03:49:13.230Z,99.90
2019-03-12T03:54:07.811Z,99.90
2019-03-12T03:59:02.476Z,99.90
2019-03-12T04:03:57.239Z,99.90
2019-03-12T04:08:51.826Z,99.90
2019-03-12T04:13:46.424Z,99.90
2019-03-12T04:18:41.030Z,99.90
2019-03-12T04:23:35.619Z,99.90
2019-03-12T04:28:30.192Z,99.90
2019-03-12T04:33:54.786Z,99.90
2019-03-12T04:38:49.357Z,99.90
2019-03-12T04:43:43.948Z,99.90
2019-03-12T04:48:38.526Z,99.90
2019-03-12T04:53:33.125Z,99.90
2019-03-12T04:58:27.698Z,99.90
2019-03-12T05:03:22.273Z,99.90
2019-03-12T05:08:16.847Z,99.90
2019-03-12T05:13:11.440Z,99.90
2019-03-12T05:18:06.024Z,99.90
2019-03-12T05:23:00.644Z,99.90
2019-03-12T05:27:55.217Z,99.90
2019-03-12T05:32:49.822Z,99.90
2019-03-12T05:37:44.801Z,99.90
2019-03-12T05:42:39.550Z,99.90
2019-03-12T05:47:34.135Z,99.90
2019-03-12T05:52:28.741Z,99.90
2019-03-12T05:57:23.296Z,99.90
2019-03-12T06:02:17.904Z,99.90
2019-03-12T06:07:12.487Z,99.90
2019-03-12T06:12:07.097Z,99.90
2019-03-12T06:17:01.677Z,99.90
2019-03-12T06:21:56.277Z,99.90
2019-03-12T06:26:50.853Z,99.90
2019-03-12T06:31:52.719Z,99.90
2019-03-12T06:36:51.652Z,99.90
2019-03-12T06:41:53.336Z,99.90
2019-03-12T06:47:03.191Z,99.90
2019-03-12T06:52:05.105Z,99.90
2019-03-12T06:57:02.152Z,99.90
2019-03-12T07:02:14.447Z,99.90
2019-03-12T07:07:26.371Z,99.90
2019-03-12T07:12:38.298Z,99.90
2019-03-12T07:17:32.624Z,99.90
2019-03-12T07:22:32.943Z,99.90
2019-03-12T07:27:29.217Z,99.90
2019-03-12T07:32:28.115Z,99.90
2019-03-12T07:37:39.166Z,99.90
2019-03-12T07:42:54.398Z,99.90
2019-03-12T07:47:56.431Z,99.90
2019-03-12T07:52:51.115Z,99.90
2019-03-12T07:57:47.802Z,99.90
2019-03-12T08:02:52.530Z,99.90
2019-03-12T08:08:06.120Z,99.90
2019-03-12T08:13:28.794Z,99.90
2019-03-12T08:18:44.826Z,99.90
2019-03-12T08:23:44.263Z,99.90
2019-03-12T08:28:40.548Z,99.90
2019-03-12T08:33:50.998Z,99.90
2019-03-12T08:38:52.918Z,99.90
2019-03-12T08:43:50.424Z,99.90
2019-03-12T08:48:49.812Z,99.90
2019-03-12T08:54:00.972Z,99.90
2019-03-12T08:59:00.214Z,99.90
2019-03-12T09:03:59.499Z,99.90
2019-03-12T09:08:59.684Z,99.90
2019-03-12T09:14:12.083Z,99.90
2019-03-12T09:19:19.350Z,99.90
2019-03-12T09:24:15.580Z,99.90
2019-03-12T09:29:17.792Z,99.90
2019-03-12T09:34:14.478Z,99.90
2019-03-12T09:39:08.888Z,99.90
2019-03-12T09:44:08.031Z,99.90
2019-03-12T09:49:08.060Z,99.90
2019-03-12T09:54:21.455Z,99.90
2019-03-12T09:59:31.723Z,99.90
2019-03-12T10:04:31.013Z,99.90
2019-03-12T10:09:33.334Z,99.90
2019-03-12T10:14:28.276Z,99.90
2019-03-12T10:19:42.801Z,99.90
2019-03-12T10:24:39.032Z,99.90
2019-03-12T10:29:46.710Z,99.90
2019-03-12T10:34:58.623Z,99.90
2019-03-12T10:40:01.633Z,99.90
2019-03-12T10:45:15.475Z,99.90
2019-03-12T10:50:10.695Z,99.90
2019-03-12T10:55:12.942Z,99.90
2019-03-12T11:00:07.497Z,99.90
2019-03-12T11:05:02.104Z,99.90
2019-03-12T11:09:56.837Z,99.90
2019-03-12T11:14:51.520Z,99.90
2019-03-12T11:19:46.114Z,99.90
2019-03-12T11:24:40.845Z,99.90
2019-03-12T11:29:35.434Z,99.90
2019-03-12T11:34:30.024Z,99.90
2019-03-12T11:39:24.601Z,99.90
2019-03-12T11:44:20.301Z,99.90
2019-03-12T11:49:15.090Z,98.90
2019-03-12T11:54:10.290Z,98.80
2019-03-12T11:59:05.345Z,98.30
2019-03-12T12:04:00.328Z,97.90
2019-03-12T12:08:54.952Z,97.90
2019-03-12T12:13:49.592Z,95.90
2019-03-12T12:18:44.305Z,93.90
2019-03-12T12:23:39.571Z,94.10
2019-03-12T12:28:34.130Z,92.70
2019-03-12T12:33:28.798Z,93.20
2019-03-12T12:38:27.795Z,93.60
2019-03-12T12:43:22.918Z,92.40
2019-03-12T12:48:18.052Z,92.00
2019-03-12T12:53:12.774Z,91.90
2019-03-12T12:58:09.020Z,91.30
2019-03-12T13:03:04.810Z,90.80
2019-03-12T13:07:59.715Z,90.60
2019-03-12T13:12:54.474Z,89.20
2019-03-12T13:17:49.038Z,90.10
2019-03-12T13:22:43.802Z,89.90
2019-03-12T13:27:42.450Z,89.30
2019-03-12T13:32:34.921Z,87.70
2019-03-12T13:37:29.684Z,85.50
2019-03-12T13:42:24.538Z,85.20
2019-03-12T13:47:19.146Z,83.40
2019-03-12T13:52:14.185Z,85.30
2019-03-12T13:57:08.795Z,84.30
2019-03-12T14:02:05.055Z,82.80
2019-03-12T14:06:59.894Z,84.20
2019-03-12T14:11:54.701Z,84.60
2019-03-12T14:16:49.432Z,85.30
2019-03-12T14:21:44.408Z,81.60
2019-03-12T14:26:39.464Z,81.90
2019-03-12T14:31:34.396Z,81.20
2019-03-12T14:36:29.578Z,82.90
2019-03-12T14:41:24.588Z,80.40
2019-03-12T14:46:19.812Z,79.30
2019-03-12T14:56:42.320Z,79.50
2019-03-12T15:01:37.010Z,76.80
2019-03-12T15:06:31.673Z,75.30
2019-03-12T15:11:26.416Z,76.70
2019-03-12T15:16:21.042Z,76.50
2019-03-12T15:21:16.502Z,76.10
2019-03-12T15:26:11.287Z,74.10
2019-03-12T15:31:06.162Z,73.70
2019-03-12T15:36:00.943Z,74.40
2019-03-12T15:40:55.789Z,72.50
2019-03-12T15:45:50.481Z,72.20
2019-03-12T15:50:45.069Z,72.10
2019-03-12T15:55:39.713Z,73.00
2019-03-12T16:00:34.310Z,72.90
2019-03-12T16:05:29.205Z,72.00
2019-03-12T16:10:23.995Z,74.00
2019-03-12T16:15:19.525Z,72.70
2019-03-12T16:20:17.500Z,72.80
2019-03-12T16:25:12.494Z,70.60
2019-03-12T16:30:13.828Z,70.60
2019-03-12T16:35:10.338Z,72.50
2019-03-12T16:40:16.658Z,73.90
2019-03-12T16:45:17.414Z,74.60
2019-03-12T16:50:18.785Z,75.00
2019-03-12T16:55:15.468Z,75.80
2019-03-12T17:00:23.530Z,74.80
2019-03-12T17:05:18.298Z,76.40
2019-03-12T17:10:18.715Z,78.20
2019-03-12T17:15:28.075Z,79.50
2019-03-12T17:20:26.277Z,80.50
2019-03-12T17:25:21.579Z,81.80
2019-03-12T17:30:27.675Z,83.20
2019-03-12T17:35:36.675Z,84.00
2019-03-12T17:40:31.433Z,86.40
2019-03-12T17:45:26.437Z,88.50
2019-03-12T17:50:21.121Z,89.80
2019-03-12T17:55:16.199Z,89.30
2019-03-12T18:00:32.011Z,90.50
2019-03-12T18:05:31.894Z,91.70
2019-03-12T18:10:31.301Z,92.00
2019-03-12T18:15:26.272Z,92.60
2019-03-12T18:20:23.835Z,93.90
2019-03-12T18:25:29.284Z,95.50
2019-03-12T18:30:23.854Z,96.60
2019-03-12T18:35:18.526Z,97.70
2019-03-12T18:40:29.028Z,98.50
2019-03-12T18:45:34.786Z,98.30
2019-03-12T18:50:29.360Z,98.00
2019-03-12T18:55:38.480Z,98.50
2019-03-12T19:00:38.396Z,98.60
2019-03-12T19:05:32.993Z,96.80
2019-03-12T19:10:27.765Z,95.80
2019-03-12T19:15:22.495Z,95.80
2019-03-12T19:20:19.086Z,96.90
2019-03-12T19:25:17.083Z,98.20
2019-03-12T19:30:15.930Z,99.60
2019-03-12T19:35:15.303Z,98.60
2019-03-12T19:40:23.617Z,98.20
2019-03-12T19:45:18.255Z,99.70
2019-03-12T19:50:19.413Z,99.90
2019-03-12T19:55:18.499Z,96.70
2019-03-12T20:00:17.100Z,99.00
2019-03-12T20:05:12.911Z,99.90
2019-03-12T20:10:41.718Z,99.90
2019-03-12T20:16:02.642Z,99.90
2019-03-12T20:21:25.582Z,99.90
2019-03-12T20:26:47.298Z,99.90
2019-03-12T20:32:13.253Z,99.90
2019-03-12T20:37:35.689Z,99.70
2019-03-12T20:43:08.836Z,99.90
2019-03-12T20:48:41.466Z,99.90
2019-03-12T20:54:15.142Z,99.90
2019-03-12T20:59:47.823Z,99.90
2019-03-12T21:05:35.249Z,99.90
2019-03-12T21:11:22.864Z,99.90
2019-03-12T21:16:52.859Z,99.90
2019-03-12T21:22:03.540Z,99.90
2019-03-12T21:27:27.752Z,99.90
2019-03-12T21:32:22.397Z,99.90
2019-03-12T21:37:17.695Z,99.90
2019-03-12T21:42:12.509Z,99.80
2019-03-12T21:47:07.331Z,99.10
2019-03-12T21:52:01.897Z,98.20
2019-03-12T21:56:56.552Z,97.80
2019-03-12T22:01:51.288Z,97.90
2019-03-12T22:06:46.044Z,98.00
2019-03-12T22:11:40.613Z,98.10
2019-03-12T22:16:35.208Z,97.90
2019-03-12T22:21:43.277Z,97.70
2019-03-12T22:26:37.844Z,97.50
2019-03-12T22:31:32.510Z,97.40
2019-03-12T22:36:27.086Z,97.40
2019-03-12T22:41:21.666Z,98.00
2019-03-12T22:46:16.234Z,98.10
2019-03-12T22:51:10.812Z,98.10
2019-03-12T22:56:05.460Z,98.10
2019-03-12T23:01:00.120Z,98.00
2019-03-12T23:05:54.682Z,97.70
2019-03-12T23:10:49.446Z,97.90
2019-03-12T23:15:44.018Z,97.40
2019-03-12T23:20:38.607Z,97.70
2019-03-12T23:25:33.248Z,97.80
2019-03-12T23:30:28.906Z,98.10
2019-03-12T23:35:23.692Z,97.70
2019-03-12T23:40:39.138Z,97.30
2019-03-12T23:45:33.772Z,97.00
2019-03-12T23:50:28.977Z,97.90
2019-03-12T23:55:23.784Z,97.90
